Time;durP1;ratioP1;P1;durP2;ratioP2;P2;SDS_P1;SDS_P2;PMS_P1;PMS_P2;Temp;Humidity;BMP_temperature;BMP_pressure;BME280_temperature;BME280_humidity;BME280_pressure;Samples;Min_cycle;Max_cycle;Signal;HPM_P1;HPM_P2
2021/07/31 00:01:43;;;;;;;9.35;6.17;;;;;;;23.11;60.58;99955.98;1752992;79;21046;-67
2021/07/31 00:04:09;;;;;;;8.45;6.22;;;;;;;23.09;60.74;99958.06;1756433;79;21138;-67
2021/07/31 00:06:38;;;;;;;10.35;6.92;;;;;;;23.06;60.85;99954.44;1697329;82;21171;-67
2021/07/31 00:09:05;;;;;;;12.93;7.00;;;;;;;23.05;61.05;99958.98;1753895;80;21337;-68
2021/07/31 00:11:32;;;;;;;10.10;7.08;;;;;;;23.03;61.20;99958.35;1752674;80;21613;-68
2021/07/31 00:14:01;;;;;;;10.93;7.17;;;;;;;23.03;61.22;99961.04;1755413;80;21082;-68
2021/07/31 00:16:27;;;;;;;10.58;7.25;;;;;;;23.00;61.11;99964.17;1752337;79;21074;-68
2021/07/31 00:18:55;;;;;;;13.30;7.10;;;;;;;22.95;61.22;99962.13;1753176;79;21154;-68
2021/07/31 00:21:23;;;;;;;9.75;6.65;;;;;;;22.94;61.43;99960.47;1753335;79;21640;-68
2021/07/31 00:23:50;;;;;;;9.45;6.97;;;;;;;22.99;61.47;99961.18;1751815;79;21110;-67
2021/07/31 00:26:16;;;;;;;9.45;6.50;;;;;;;23.00;61.54;99969.02;1751383;80;21134;-67
2021/07/31 00:28:44;;;;;;;9.43;7.03;;;;;;;23.00;61.64;99964.98;1748662;79;21602;-67
2021/07/31 00:31:10;;;;;;;14.53;6.95;;;;;;;22.98;61.60;99964.88;1747806;80;21047;-67
2021/07/31 00:33:36;;;;;;;10.48;6.67;;;;;;;22.94;61.40;99963.69;1754662;79;21078;-66
2021/07/31 00:36:03;;;;;;;12.00;7.03;;;;;;;22.91;61.29;99962.77;1733104;80;21103;-66
2021/07/31 00:38:30;;;;;;;12.20;8.20;;;;;;;22.90;62.01;99965.16;1750405;80;21062;-65
2021/07/31 00:40:56;;;;;;;11.12;6.47;;;;;;;22.87;62.56;99967.73;1696111;82;21154;-66
2021/07/31 00:43:23;;;;;;;13.20;6.62;;;;;;;22.84;62.52;99963.33;1750977;80;21114;-66
2021/07/31 00:45:50;;;;;;;9.45;6.30;;;;;;;22.77;62.37;99960.67;1746501;80;21141;-67
2021/07/31 00:48:17;;;;;;;10.00;6.58;;;;;;;22.74;62.63;99958.41;1727465;80;21121;-67
2021/07/31 00:50:45;;;;;;;10.70;6.78;;;;;;;22.76;62.65;99964.38;1752402;80;21098;-67
2021/07/31 00:53:11;;;;;;;10.90;7.10;;;;;;;22.75;62.92;99967.59;1751744;80;21086;-67
2021/07/31 00:55:39;;;;;;;14.43;7.30;;;;;;;22.73;63.32;99957.59;1750603;80;21122;-68
2021/07/31 00:58:07;;;;;;;11.30;6.62;;;;;;;22.73;63.60;99960.28;1734769;80;21793;-67
2021/07/31 01:00:36;;;;;;;10.35;6.22;;;;;;;22.69;63.74;99949.66;1752456;80;21051;-67
2021/07/31 01:03:02;;;;;;;8.03;6.55;;;;;;;22.66;63.88;99960.80;1746217;80;21660;-68
2021/07/31 01:05:29;;;;;;;8.70;6.47;;;;;;;22.62;63.70;99956.91;1749262;80;21136;-68
2021/07/31 01:07:56;;;;;;;11.03;6.45;;;;;;;22.60;63.50;99953.10;1736617;80;21070;-68
2021/07/31 01:10:23;;;;;;;8.00;6.08;;;;;;;22.56;63.62;99953.23;1751862;79;21554;-67
2021/07/31 01:12:51;;;;;;;8.88;6.20;;;;;;;22.55;63.61;99951.58;1748167;80;21094;-67
2021/07/31 01:15:17;;;;;;;10.25;7.25;;;;;;;22.59;63.32;99950.63;1751821;80;21050;-68
2021/07/31 01:17:44;;;;;;;9.10;6.22;;;;;;;22.60;63.13;99954.44;1750234;80;21040;-68
2021/07/31 01:20:12;;;;;;;10.00;6.25;;;;;;;22.61;63.17;99953.91;1751140;79;21070;-68
2021/07/31 01:22:40;;;;;;;9.73;6.05;;;;;;;22.58;63.05;99963.22;1736464;80;21086;-68
2021/07/31 01:25:08;;;;;;;10.20;7.03;;;;;;;22.55;63.45;99959.62;1738051;80;21095;-68
2021/07/31 01:27:36;;;;;;;11.63;6.72;;;;;;;22.53;63.54;99957.67;1751679;80;21793;-68
2021/07/31 01:30:06;;;;;;;9.85;6.25;;;;;;;22.49;63.46;99956.44;1747683;80;21114;-68
2021/07/31 01:32:33;;;;;;;10.18;6.75;;;;;;;22.48;63.37;99957.48;1751879;80;21134;-68
2021/07/31 01:35:00;;;;;;;10.40;7.12;;;;;;;22.43;63.23;99958.64;1750078;80;21535;-67
2021/07/31 01:37:30;;;;;;;9.20;6.40;;;;;;;22.41;63.43;99957.51;1747341;80;21095;-68
2021/07/31 01:39:57;;;;;;;9.08;6.33;;;;;;;22.44;63.57;99957.09;1751829;79;21040;-68
2021/07/31 01:42:24;;;;;;;11.55;6.83;;;;;;;22.45;63.67;99957.91;1751144;79;21112;-67
2021/07/31 01:44:51;;;;;;;9.08;7.15;;;;;;;22.46;63.77;99956.88;1712244;80;21118;-68
2021/07/31 01:47:18;;;;;;;9.88;7.28;;;;;;;22.43;63.89;99958.64;1753909;80;21233;-68
2021/07/31 01:49:46;;;;;;;10.00;7.12;;;;;;;22.42;63.82;99959.14;1746667;80;21938;-68
2021/07/31 01:52:13;;;;;;;9.85;7.67;;;;;;;22.41;63.70;99954.02;1752240;80;21079;-68
2021/07/31 01:54:41;;;;;;;13.88;8.73;;;;;;;22.35;63.68;99957.00;1751397;79;21047;-68
2021/07/31 01:57:08;;;;;;;11.50;8.35;;;;;;;22.28;63.75;99957.55;1749055;79;21055;-67
2021/07/31 01:59:53;;;;;;;12.15;9.23;;;;;;;22.21;63.80;99957.53;1727069;80;21134;-67
2021/07/31 02:02:20;;;;;;;12.15;7.78;;;;;;;22.17;63.78;99958.15;1753665;80;21557;-67
2021/07/31 02:04:49;;;;;;;10.72;7.67;;;;;;;22.17;63.57;99960.30;1749033;79;21071;-67
2021/07/31 02:07:17;;;;;;;12.90;8.23;;;;;;;22.20;63.53;99960.41;1751126;80;21188;-67
2021/07/31 02:09:45;;;;;;;9.80;7.58;;;;;;;22.17;63.73;99960.83;1748899;80;21142;-67
2021/07/31 02:12:13;;;;;;;10.63;7.65;;;;;;;22.16;63.95;99968.05;1753255;79;21725;-67
2021/07/31 02:14:42;;;;;;;10.10;7.60;;;;;;;22.14;63.98;99962.58;1750916;79;21035;-67
2021/07/31 02:17:12;;;;;;;8.85;7.35;;;;;;;22.13;63.93;99965.78;1751003;80;21125;-67
2021/07/31 02:20:00;;;;;;;11.12;7.58;;;;;;;22.11;63.94;99962.99;1628975;86;21666;-67
2021/07/31 02:22:28;;;;;;;9.05;7.00;;;;;;;22.03;64.13;99967.55;1628297;86;22489;-68
2021/07/31 02:25:13;;;;;;;8.58;7.00;;;;;;;22.01;64.18;99968.28;1612099;86;21660;-67
2021/07/31 02:27:41;;;;;;;9.63;6.97;;;;;;;22.03;64.14;99963.53;1566573;86;21602;-67
2021/07/31 02:30:11;;;;;;;11.22;7.00;;;;;;;22.06;64.12;99967.13;1635586;86;21183;-67
2021/07/31 02:32:39;;;;;;;9.95;7.37;;;;;;;22.07;63.99;99968.80;1621085;86;21245;-68
2021/07/31 02:35:09;;;;;;;9.90;7.62;;;;;;;22.03;64.11;99971.56;1627578;86;21089;-68
2021/07/31 02:37:38;;;;;;;9.23;6.85;;;;;;;21.98;64.29;99976.73;1635589;86;21123;-67
2021/07/31 02:40:06;;;;;;;8.75;6.45;;;;;;;21.96;64.49;99977.45;1629727;86;21104;-68
2021/07/31 02:42:33;;;;;;;10.75;7.62;;;;;;;21.92;64.60;99980.22;1632605;86;21109;-67
2021/07/31 02:45:01;;;;;;;10.75;7.83;;;;;;;21.88;64.82;99989.19;1629232;86;21094;-68
2021/07/31 02:47:28;;;;;;;9.83;7.78;;;;;;;21.88;64.86;99989.19;1631246;86;21630;-68
2021/07/31 02:49:55;;;;;;;15.65;7.40;;;;;;;21.93;64.72;99983.74;1626317;86;21822;-68
2021/07/31 02:52:22;;;;;;;11.40;7.42;;;;;;;21.95;64.57;99981.16;1597840;87;21535;-68
2021/07/31 02:54:57;;;;;;;9.60;7.33;;;;;;;21.97;64.39;99984.47;1632072;85;21122;-68
2021/07/31 02:57:23;;;;;;;9.35;7.62;;;;;;;21.95;64.23;99990.52;1629098;86;21042;-66
2021/07/31 02:59:51;;;;;;;9.20;6.92;;;;;;;21.92;64.17;99985.58;1628665;86;21085;-67
2021/07/31 03:02:20;;;;;;;9.83;7.10;;;;;;;21.92;64.24;99986.92;1628527;86;21092;-68
2021/07/31 03:04:50;;;;;;;9.60;7.28;;;;;;;21.90;64.37;99984.97;1627865;86;21119;-66
2021/07/31 03:07:23;;;;;;;9.73;7.75;;;;;;;21.88;64.45;99992.39;1632817;86;21084;-67
2021/07/31 03:09:51;;;;;;;9.30;6.80;;;;;;;21.90;64.27;99991.66;1605355;87;21471;-67
2021/07/31 03:12:20;;;;;;;9.18;7.35;;;;;;;21.94;64.07;99991.58;1631943;86;21104;-66
2021/07/31 03:14:49;;;;;;;10.88;7.80;;;;;;;21.97;64.10;99990.33;1628651;86;21334;-67
2021/07/31 03:17:17;;;;;;;11.85;7.90;;;;;;;21.99;64.14;100001.16;1625531;86;21485;-67
2021/07/31 03:19:44;;;;;;;10.45;8.05;;;;;;;21.97;64.24;100006.39;1625874;86;21105;-67
2021/07/31 03:22:12;;;;;;;10.82;7.28;;;;;;;21.98;64.41;100010.20;1623779;86;21113;-66
2021/07/31 03:24:41;;;;;;;10.53;7.42;;;;;;;21.99;64.45;100005.17;1625906;86;21115;-68
2021/07/31 03:27:09;;;;;;;12.30;8.00;;;;;;;22.00;64.59;100011.34;1612142;86;21900;-68
2021/07/31 03:29:39;;;;;;;11.35;8.33;;;;;;;21.97;64.33;100007.23;1613183;86;21082;-67
2021/07/31 03:32:08;;;;;;;14.98;8.88;;;;;;;21.96;64.08;100004.77;1626282;86;21089;-69
2021/07/31 03:34:35;;;;;;;12.98;7.53;;;;;;;21.97;63.97;100016.62;1625234;86;21549;-68
2021/07/31 03:37:02;;;;;;;13.95;7.92;;;;;;;22.05;63.85;100012.36;1630478;86;21697;-68
2021/07/31 03:39:29;;;;;;;10.63;7.72;;;;;;;22.11;63.73;100011.22;1625119;86;21166;-68
2021/07/31 03:41:56;;;;;;;10.08;7.65;;;;;;;22.16;63.61;100008.77;1628466;86;21068;-67
2021/07/31 03:44:22;;;;;;;11.60;7.85;;;;;;;22.16;63.76;100006.91;1619966;86;22388;-68
2021/07/31 03:46:50;;;;;;;9.83;7.47;;;;;;;22.17;63.87;100012.55;1623852;86;21094;-67
2021/07/31 03:49:21;;;;;;;11.88;8.70;;;;;;;22.18;63.84;100014.73;1563081;90;21177;-67
2021/07/31 03:51:48;;;;;;;10.23;8.10;;;;;;;22.16;63.64;100012.27;1563638;90;21083;-69
2021/07/31 03:54:15;;;;;;;12.47;7.58;;;;;;;22.14;63.42;100009.47;1625537;86;21144;-68
2021/07/31 03:56:43;;;;;;;10.70;8.75;;;;;;;22.13;63.01;100011.86;1590868;88;21152;-63
2021/07/31 03:59:12;;;;;;;13.10;9.60;;;;;;;22.12;62.87;100012.36;1607286;87;21153;-68
2021/07/31 04:01:40;;;;;;;12.10;8.35;;;;;;;22.16;63.06;100008.77;1609974;86;21355;-68
2021/07/31 04:04:07;;;;;;;12.60;8.33;;;;;;;22.24;62.90;100013.88;1626946;86;21096;-66
2021/07/31 04:06:34;;;;;;;11.68;7.70;;;;;;;22.34;62.71;100022.88;1626386;86;21128;-66
2021/07/31 04:09:07;;;;;;;10.43;8.08;;;;;;;22.40;62.91;100026.88;1596353;86;21065;-67
2021/07/31 04:11:52;;;;;;;10.60;8.00;;;;;;;22.43;62.75;100025.66;1624302;86;21112;-66
2021/07/31 04:14:20;;;;;;;10.28;7.72;;;;;;;22.48;62.71;100028.53;1598462;86;21149;-67
2021/07/31 04:16:54;;;;;;;10.90;7.72;;;;;;;22.50;62.48;100022.96;1625178;86;22519;-68
2021/07/31 04:19:23;;;;;;;11.70;8.60;;;;;;;22.53;62.39;100033.27;1626077;86;21068;-68
2021/07/31 04:21:53;;;;;;;13.25;9.10;;;;;;;22.54;62.38;100030.87;1618959;86;21138;-68
2021/07/31 04:24:20;;;;;;;10.88;7.95;;;;;;;22.57;62.26;100035.83;1631389;86;21169;-67
2021/07/31 04:26:46;;;;;;;11.00;8.03;;;;;;;22.64;61.95;100035.28;1626273;86;21146;-67
2021/07/31 04:29:14;;;;;;;12.40;9.18;;;;;;;22.73;61.63;100034.53;1626223;86;21173;-67
2021/07/31 04:31:41;;;;;;;10.20;7.55;;;;;;;22.81;61.57;100030.27;1629888;86;21103;-68
2021/07/31 04:34:08;;;;;;;11.10;9.08;;;;;;;22.87;61.72;100033.98;1607497;88;21155;-67
2021/07/31 04:36:35;;;;;;;10.78;8.30;;;;;;;22.90;61.73;100034.91;1601681;88;21147;-68
2021/07/31 04:39:02;;;;;;;13.78;8.15;;;;;;;22.93;61.89;100036.64;1603533;87;22451;-69
2021/07/31 04:41:29;;;;;;;12.18;8.33;;;;;;;22.96;61.51;100030.02;1602091;88;21433;-67
2021/07/31 04:43:56;;;;;;;13.35;8.90;;;;;;;22.96;61.21;100033.55;1599158;87;21116;-68
2021/07/31 04:46:23;;;;;;;12.18;8.28;;;;;;;22.98;61.04;100034.64;1600136;87;21094;-66
2021/07/31 04:48:49;;;;;;;13.75;8.53;;;;;;;22.99;60.93;100035.77;1602406;87;21196;-66
2021/07/31 04:51:16;;;;;;;12.82;8.63;;;;;;;23.05;60.72;100038.14;1602073;88;22422;-68
2021/07/31 04:53:43;;;;;;;11.12;8.13;;;;;;;23.17;60.43;100034.30;1604751;88;21140;-68
2021/07/31 04:56:10;;;;;;;10.98;8.73;;;;;;;23.27;60.04;100031.16;1606037;88;21035;-68
2021/07/31 04:58:37;;;;;;;11.38;8.50;;;;;;;23.35;59.93;100028.19;1602947;88;21601;-68
2021/07/31 05:01:03;;;;;;;12.70;9.13;;;;;;;23.41;59.87;100022.50;1627008;86;21823;-67
2021/07/31 05:03:30;;;;;;;14.23;9.10;;;;;;;23.47;59.99;100030.52;1628947;86;21189;-72
2021/07/31 05:05:58;;;;;;;11.55;8.33;;;;;;;23.53;59.13;100026.13;1635821;86;21961;-72
2021/07/31 05:08:25;;;;;;;9.93;7.85;;;;;;;23.58;59.30;100028.98;1620659;86;21367;-68
2021/07/31 05:10:52;;;;;;;10.08;7.47;;;;;;;23.63;59.27;100028.34;1589686;88;21139;-67
2021/07/31 05:13:18;;;;;;;11.53;8.03;;;;;;;23.68;59.23;100024.48;1603328;88;21178;-66
2021/07/31 05:15:46;;;;;;;10.03;7.97;;;;;;;23.73;59.22;100030.83;1604181;88;21104;-66
2021/07/31 05:18:13;;;;;;;10.25;7.17;;;;;;;23.78;58.84;100034.22;1606927;88;21123;-68
2021/07/31 05:20:41;;;;;;;10.58;7.75;;;;;;;23.82;57.88;100033.28;1602132;88;21363;-70
2021/07/31 05:23:08;;;;;;;12.15;7.70;;;;;;;23.87;57.57;100028.08;1598616;88;21091;-56
2021/07/31 05:25:36;;;;;;;10.53;7.90;;;;;;;23.90;57.45;100037.05;1591112;88;21181;-57
2021/07/31 05:28:03;;;;;;;11.10;7.30;;;;;;;23.94;57.97;100031.55;1590718;88;21110;-69
2021/07/31 05:30:29;;;;;;;9.18;6.60;;;;;;;24.04;57.63;100037.75;1595120;88;21079;-59
2021/07/31 05:32:56;;;;;;;10.80;6.95;;;;;;;24.17;57.27;100032.80;1618531;86;21039;-73
2021/07/31 05:35:23;;;;;;;10.50;6.05;;;;;;;24.27;56.53;100033.92;1606434;88;21033;-71
2021/07/31 05:37:49;;;;;;;9.75;6.05;;;;;;;24.35;55.72;100023.94;1605618;88;21081;-68
2021/07/31 05:40:17;;;;;;;13.20;7.08;;;;;;;24.44;55.28;100029.31;1603906;88;21072;-67
2021/07/31 05:42:43;;;;;;;8.63;6.35;;;;;;;24.52;54.55;100024.99;1591862;87;22199;-66
2021/07/31 05:45:11;;;;;;;8.90;5.92;;;;;;;24.59;53.58;100027.11;1601371;88;21088;-69
2021/07/31 05:47:38;;;;;;;9.75;6.17;;;;;;;24.69;54.05;100023.90;1595263;88;21069;-70
2021/07/31 05:50:07;;;;;;;11.63;6.45;;;;;;;24.79;54.64;100034.14;1598128;88;21136;-72
2021/07/31 05:52:37;;;;;;;10.35;6.65;;;;;;;24.88;54.30;100033.31;1596431;88;21042;-71
2021/07/31 05:55:05;;;;;;;8.83;6.28;;;;;;;24.96;54.32;100031.13;1570986;89;21147;-70
2021/07/31 05:57:31;;;;;;;9.30;5.40;;;;;;;25.06;54.37;100027.09;1628618;86;21069;-68
2021/07/31 05:59:58;;;;;;;7.60;5.58;;;;;;;25.13;53.02;100032.70;1626827;86;21124;-64
2021/07/31 06:02:24;;;;;;;8.33;5.53;;;;;;;25.19;52.67;100030.42;1631522;86;21100;-71
2021/07/31 06:04:51;;;;;;;8.68;5.22;;;;;;;25.27;52.15;100037.40;1629279;86;21117;-76
2021/07/31 06:07:18;;;;;;;7.60;4.65;;;;;;;25.35;51.80;100038.43;1604096;86;21841;-76
2021/07/31 06:09:50;;;;;;;11.22;5.33;;;;;;;25.45;51.02;100042.42;1629565;86;21371;-67
2021/07/31 06:12:17;;;;;;;9.08;5.20;;;;;;;25.53;50.35;100036.18;1627578;86;21637;-78
2021/07/31 06:14:44;;;;;;;8.00;5.78;;;;;;;25.62;51.16;100037.20;1629672;86;21148;-64
2021/07/31 06:17:10;;;;;;;6.97;5.20;;;;;;;25.72;50.88;100042.84;1621174;86;21144;-68
2021/07/31 06:19:37;;;;;;;7.25;5.28;;;;;;;25.80;51.30;100045.74;1630319;86;21141;-65
2021/07/31 06:22:04;;;;;;;7.45;4.72;;;;;;;25.87;50.75;100041.05;1628575;86;21019;-63
2021/07/31 06:24:31;;;;;;;8.25;5.05;;;;;;;25.93;48.63;100037.44;1626845;86;21098;-64
2021/07/31 06:26:58;;;;;;;9.03;4.90;;;;;;;26.03;48.14;100042.30;1625436;86;21093;-64
2021/07/31 06:29:24;;;;;;;7.20;4.58;;;;;;;26.10;47.98;100042.45;1627634;86;21193;-65
2021/07/31 06:31:51;;;;;;;8.28;4.70;;;;;;;26.19;46.99;100048.31;1606702;86;22231;-63
2021/07/31 06:34:19;;;;;;;7.03;4.65;;;;;;;26.31;45.73;100048.34;1628972;86;21083;-64
2021/07/31 06:36:47;;;;;;;9.18;4.25;;;;;;;26.41;45.63;100051.27;1627406;86;21172;-63
2021/07/31 06:39:15;;;;;;;11.85;4.10;;;;;;;26.49;45.48;100044.17;1620685;86;21117;-64
2021/07/31 06:41:41;;;;;;;7.95;4.78;;;;;;;26.58;45.70;100041.08;1619198;86;21199;-64
2021/07/31 06:44:07;;;;;;;12.05;5.00;;;;;;;26.67;45.82;100039.70;1577607;89;21182;-64
2021/07/31 06:46:34;;;;;;;18.98;5.20;;;;;;;26.76;45.88;100045.01;1581173;89;21186;-65
2021/07/31 06:49:00;;;;;;;7.83;4.47;;;;;;;26.85;44.42;100040.89;1579424;89;21139;-61
2021/07/31 06:51:27;;;;;;;10.50;4.80;;;;;;;26.91;43.71;100034.25;1580263;89;21596;-64
2021/07/31 06:53:54;;;;;;;7.17;4.40;;;;;;;26.95;44.31;100034.05;1569341;89;21121;-64
2021/07/31 06:56:21;;;;;;;9.00;3.67;;;;;;;27.00;44.76;100032.80;1606387;88;21173;-62
2021/07/31 06:58:48;;;;;;;16.30;5.10;;;;;;;27.06;43.61;100029.95;1604746;88;21127;-62
2021/07/31 07:01:15;;;;;;;6.37;3.60;;;;;;;27.14;42.46;100025.25;1561945;89;21148;-62
2021/07/31 07:03:44;;;;;;;7.75;4.35;;;;;;;27.19;42.22;100020.75;1604586;88;21179;-65
2021/07/31 07:06:10;;;;;;;6.65;3.65;;;;;;;27.24;42.19;100026.79;1572587;89;21101;-64
2021/07/31 07:08:38;;;;;;;6.83;3.72;;;;;;;27.32;41.19;100025.08;1629543;86;22437;-61
2021/07/31 07:11:05;;;;;;;8.60;3.55;;;;;;;27.38;40.79;100028.69;1628785;86;21384;-62
2021/07/31 07:13:31;;;;;;;8.45;3.37;;;;;;;27.45;40.11;100026.64;1610730;86;21667;-63
2021/07/31 07:16:05;;;;;;;7.17;4.22;;;;;;;27.52;39.66;100031.89;1630660;86;21180;-64
2021/07/31 07:18:33;;;;;;;8.90;3.98;;;;;;;27.58;40.72;100031.73;1630388;86;21111;-63
2021/07/31 07:21:06;;;;;;;5.50;3.47;;;;;;;27.63;39.95;100034.26;1628359;86;21181;-64
2021/07/31 07:23:33;;;;;;;11.75;4.37;;;;;;;27.68;40.23;100035.70;1636663;86;21144;-63
2021/07/31 07:26:00;;;;;;;6.62;3.42;;;;;;;27.74;40.21;100031.48;1637502;86;21686;-62
2021/07/31 07:28:26;;;;;;;7.05;3.58;;;;;;;27.83;39.71;100027.83;1638394;86;21097;-62
2021/07/31 07:30:53;;;;;;;7.85;3.17;;;;;;;27.91;37.91;100022.56;1607797;86;21199;-63
2021/07/31 07:33:20;;;;;;;5.35;3.22;;;;;;;27.98;37.42;100025.94;1629488;86;21165;-61
2021/07/31 07:35:47;;;;;;;13.45;4.00;;;;;;;28.03;37.35;100021.95;1638206;86;21103;-63
2021/07/31 07:38:14;;;;;;;7.85;3.85;;;;;;;28.10;37.31;100025.30;1635807;86;21593;-63
2021/07/31 07:40:41;;;;;;;7.90;3.92;;;;;;;28.16;38.22;100017.55;1635667;86;21118;-63
2021/07/31 07:43:07;;;;;;;6.53;3.67;;;;;;;28.26;37.81;100023.66;1635936;86;21094;-63
2021/07/31 07:45:34;;;;;;;6.35;3.92;;;;;;;28.33;37.72;100027.53;1635478;86;21402;-64
2021/07/31 07:48:01;;;;;;;13.18;4.15;;;;;;;28.37;38.26;100019.73;1628763;86;21545;-63
2021/07/31 07:50:28;;;;;;;18.62;5.35;;;;;;;28.43;38.90;100022.77;1625700;86;21097;-63
2021/07/31 07:52:55;;;;;;;11.28;4.20;;;;;;;28.49;38.94;100022.59;1626451;86;21118;-64
2021/07/31 07:55:21;;;;;;;9.63;4.17;;;;;;;28.54;39.21;100016.44;1629893;86;21176;-61
2021/07/31 07:57:48;;;;;;;8.35;3.72;;;;;;;28.63;37.82;100023.61;1626485;86;21312;-62
2021/07/31 08:00:17;;;;;;;6.37;3.67;;;;;;;28.66;37.27;100023.92;1626483;86;21128;-63
2021/07/31 08:02:44;;;;;;;7.67;3.40;;;;;;;28.67;36.34;100024.22;1636444;86;21153;-63
2021/07/31 08:05:13;;;;;;;6.72;3.52;;;;;;;28.70;35.96;100026.42;1636980;86;21200;-62
2021/07/31 08:07:43;;;;;;;6.03;3.50;;;;;;;28.75;35.62;100027.55;1638137;86;21101;-64
2021/07/31 08:10:10;;;;;;;4.92;3.00;;;;;;;28.79;35.36;100030.05;1632553;86;21578;-62
2021/07/31 08:12:37;;;;;;;5.67;3.55;;;;;;;28.84;35.19;100032.81;1621502;86;21150;-61
2021/07/31 08:15:04;;;;;;;4.87;3.05;;;;;;;28.86;34.96;100026.06;1639384;86;21093;-61
2021/07/31 08:17:31;;;;;;;6.15;3.65;;;;;;;28.93;34.66;100027.22;1629740;86;21615;-63
2021/07/31 08:19:58;;;;;;;7.60;3.95;;;;;;;28.98;35.38;100027.28;1638318;86;21085;-62
2021/07/31 08:22:24;;;;;;;6.95;3.40;;;;;;;29.03;35.74;100030.59;1638371;85;21189;-63
2021/07/31 08:24:51;;;;;;;5.60;3.72;;;;;;;29.08;35.55;100032.84;1617175;86;21069;-63
2021/07/31 08:27:18;;;;;;;6.47;3.17;;;;;;;29.14;35.56;100025.57;1636897;86;21133;-61
2021/07/31 08:29:45;;;;;;;6.40;3.60;;;;;;;29.19;35.43;100026.20;1638141;86;21077;-64
2021/07/31 08:32:11;;;;;;;7.58;3.47;;;;;;;29.23;34.57;100023.25;1606026;87;21136;-65
2021/07/31 08:34:39;;;;;;;9.98;3.30;;;;;;;29.27;34.72;100019.78;1575597;89;21130;-61
2021/07/31 08:37:05;;;;;;;5.47;3.45;;;;;;;29.31;35.27;100018.73;1628432;86;21091;-63
2021/07/31 08:39:32;;;;;;;5.83;3.50;;;;;;;29.39;35.16;100016.91;1625949;86;21558;-62
2021/07/31 08:42:01;;;;;;;6.75;3.70;;;;;;;29.46;35.21;100021.58;1632503;86;21570;-62
2021/07/31 08:44:27;;;;;;;8.65;3.67;;;;;;;29.50;34.75;100011.03;1611558;86;21121;-63
2021/07/31 08:46:54;;;;;;;6.60;3.35;;;;;;;29.52;35.59;100019.75;1629778;86;21228;-62
2021/07/31 08:49:20;;;;;;;5.78;3.45;;;;;;;29.58;34.13;100012.47;1630585;86;21121;-62
2021/07/31 08:51:47;;;;;;;7.47;3.72;;;;;;;29.61;34.22;100005.98;1606388;86;21105;-63
2021/07/31 08:54:13;;;;;;;7.70;3.70;;;;;;;29.67;35.29;100012.80;1626840;86;21144;-61
2021/07/31 08:56:42;;;;;;;7.03;3.77;;;;;;;29.73;35.39;100000.94;1628056;86;21623;-67
2021/07/31 08:59:10;;;;;;;6.72;3.58;;;;;;;29.81;35.29;100004.55;1627593;86;21161;-66
2021/07/31 09:01:36;;;;;;;5.40;3.27;;;;;;;29.91;36.04;100007.86;1617512;86;21584;-64
2021/07/31 09:04:15;;;;;;;6.12;3.30;;;;;;;29.99;35.54;100001.43;1604684;86;21113;-66
2021/07/31 09:06:42;;;;;;;6.97;3.83;;;;;;;30.07;34.83;100002.02;1629198;86;21133;-66
2021/07/31 09:09:09;;;;;;;4.92;2.60;;;;;;;30.11;35.35;99999.88;1630029;86;21141;-67
2021/07/31 09:11:56;;;;;;;5.72;3.37;;;;;;;30.18;34.71;99998.29;1626873;86;21129;-62
2021/07/31 09:14:23;;;;;;;5.25;2.83;;;;;;;30.25;34.42;100002.13;1606146;86;21537;-64
2021/07/31 09:16:51;;;;;;;6.47;3.55;;;;;;;30.30;34.09;99996.73;1629502;86;21179;-66
2021/07/31 09:19:19;;;;;;;5.72;3.27;;;;;;;30.36;34.22;99995.68;1628756;86;21133;-65
2021/07/31 09:21:46;;;;;;;5.97;3.45;;;;;;;30.42;33.50;99990.56;1626054;86;21102;-68
2021/07/31 09:24:16;;;;;;;5.70;3.72;;;;;;;30.48;33.66;99994.95;1621815;86;21196;-66
2021/07/31 09:26:48;;;;;;;7.03;3.45;;;;;;;30.53;32.62;99997.68;1624467;86;21576;-64
2021/07/31 09:29:17;;;;;;;5.60;3.30;;;;;;;30.59;32.55;99993.63;1629083;86;21058;-66
2021/07/31 09:31:50;;;;;;;6.37;3.47;;;;;;;30.64;32.80;99995.00;1622984;86;21610;-67
2021/07/31 09:34:29;;;;;;;5.45;3.27;;;;;;;30.72;33.79;99994.49;1625938;86;21109;-66
2021/07/31 09:37:24;;;;;;;8.93;3.65;;;;;;;30.81;34.15;99992.87;1605169;86;21677;-67
2021/07/31 09:40:03;;;;;;;5.03;2.80;;;;;;;30.91;33.30;99991.55;1623259;86;21089;-66
2021/07/31 09:42:40;;;;;;;6.60;3.55;;;;;;;30.98;31.63;99985.08;1621476;86;21427;-66
2021/07/31 09:45:10;;;;;;;5.53;3.50;;;;;;;30.99;32.37;99987.53;1622020;86;21023;-68
2021/07/31 09:48:00;;;;;;;9.05;3.92;;;;;;;31.05;32.08;99977.48;1624632;86;21562;-66
2021/07/31 09:50:48;;;;;;;6.72;3.40;;;;;;;31.09;32.28;99984.03;1622193;86;21093;-64
2021/07/31 09:53:25;;;;;;;9.33;3.35;;;;;;;31.11;32.26;99977.77;1609379;87;21089;-65
2021/07/31 09:55:51;;;;;;;8.93;3.67;;;;;;;31.11;31.08;99973.14;1624596;86;21181;-66
2021/07/31 09:58:19;;;;;;;5.85;3.87;;;;;;;31.15;31.49;99975.33;1625249;86;21241;-66
2021/07/31 10:00:48;;;;;;;5.28;3.17;;;;;;;31.20;30.89;99972.62;1617126;86;21581;-65
2021/07/31 10:03:15;;;;;;;6.87;3.67;;;;;;;31.23;31.94;99968.00;1622065;86;22077;-65
2021/07/31 10:05:44;;;;;;;6.40;3.02;;;;;;;31.27;31.68;99969.92;1615311;86;21136;-66
2021/07/31 10:08:11;;;;;;;6.67;3.00;;;;;;;31.33;30.64;99972.64;1627265;86;21143;-66
2021/07/31 10:10:39;;;;;;;5.83;3.25;;;;;;;31.36;31.26;99972.91;1619855;86;22275;-65
2021/07/31 10:13:07;;;;;;;5.17;3.15;;;;;;;31.43;32.03;99965.84;1621189;86;21171;-66
2021/07/31 10:15:33;;;;;;;5.00;2.85;;;;;;;31.48;33.38;99959.05;1625505;86;21522;-67
2021/07/31 10:18:08;;;;;;;5.83;3.35;;;;;;;31.54;33.20;99961.23;1622643;86;21115;-67
2021/07/31 10:20:36;;;;;;;5.47;3.05;;;;;;;31.61;33.17;99958.52;1613205;86;21168;-65
2021/07/31 10:23:02;;;;;;;5.37;3.02;;;;;;;31.68;33.32;99953.36;1627264;86;21093;-67
2021/07/31 10:25:28;;;;;;;5.60;3.22;;;;;;;31.75;33.15;99953.89;1635652;86;21634;-66
2021/07/31 10:27:55;;;;;;;6.58;3.22;;;;;;;31.80;32.85;99953.32;1637224;85;21344;-65
2021/07/31 10:30:34;;;;;;;6.95;3.62;;;;;;;31.84;33.94;99956.30;1586530;86;21103;-66
2021/07/31 10:33:01;;;;;;;6.10;3.98;;;;;;;31.89;34.29;99955.48;1635029;86;22349;-66
2021/07/31 10:35:36;;;;;;;7.30;3.42;;;;;;;31.92;34.75;99953.58;1628855;86;21144;-65
2021/07/31 10:38:08;;;;;;;;;;;;;;;31.95;34.43;99956.56;1631698;86;21070;-66
2021/07/31 10:40:41;;;;;;;6.15;3.75;;;;;;;31.96;34.66;99957.37;1629487;86;21091;-66
2021/07/31 10:43:09;;;;;;;7.47;3.15;;;;;;;31.94;33.04;99948.67;1630267;86;21453;-68
2021/07/31 10:45:36;;;;;;;9.35;4.00;;;;;;;31.94;33.04;99948.67;1628194;86;21129;-65
2021/07/31 10:48:10;;;;;;;7.80;3.77;;;;;;;31.98;33.68;99954.66;1630850;86;21098;-65
2021/07/31 10:50:36;;;;;;;7.45;3.50;;;;;;;32.01;32.79;99952.75;1634722;86;21137;-66
2021/07/31 10:53:11;;;;;;;6.67;4.42;;;;;;;32.05;32.58;99955.73;1633606;86;22556;-67
2021/07/31 10:55:47;;;;;;;5.87;3.35;;;;;;;32.10;33.78;99959.02;1637729;86;21058;-65
2021/07/31 10:58:20;;;;;;;5.55;3.45;;;;;;;32.12;33.94;99950.83;1638611;86;21006;-69
2021/07/31 11:00:55;;;;;;;4.90;2.83;;;;;;;32.19;34.08;99947.26;1618183;86;21163;-66
2021/07/31 11:03:32;;;;;;;7.03;3.27;;;;;;;32.24;33.97;99951.88;1641675;84;21133;-63
2021/07/31 11:06:01;;;;;;;6.95;3.55;;;;;;;32.29;33.69;99953.22;1630070;86;21081;-68
2021/07/31 11:08:30;;;;;;;17.42;3.80;;;;;;;32.29;33.69;99943.69;1632970;86;21116;-66
2021/07/31 11:11:25;;;;;;;6.67;3.40;;;;;;;32.27;33.24;99943.72;1629794;86;21137;-66
2021/07/31 11:13:53;;;;;;;5.70;3.45;;;;;;;32.24;33.60;99938.27;1630680;86;21167;-65
2021/07/31 11:16:21;;;;;;;7.45;3.92;;;;;;;32.15;33.70;99939.39;1625372;86;21181;-66
2021/07/31 11:18:50;;;;;;;6.50;3.80;;;;;;;32.12;34.22;99930.98;1601072;88;21983;-64
2021/07/31 11:21:42;;;;;;;5.75;3.77;;;;;;;32.10;35.08;99927.17;1598924;87;21603;-65
2021/07/31 11:24:11;;;;;;;7.28;3.65;;;;;;;32.12;34.96;99916.00;1565930;90;21623;-65
2021/07/31 11:26:50;;;;;;;5.47;3.30;;;;;;;32.15;35.10;99923.63;1601561;86;21602;-67
2021/07/31 11:29:24;;;;;;;7.95;3.80;;;;;;;32.25;35.61;99926.86;1631504;86;21180;-64
2021/07/31 11:32:11;;;;;;;6.75;3.55;;;;;;;32.33;32.79;99932.53;1602287;86;21098;-64
2021/07/31 11:34:45;;;;;;;6.50;3.35;;;;;;;32.43;33.44;99919.95;1605370;86;21187;-66